Aviation Digital Data Service (ADDS)

Output produced by METARs form (1321 UTC 07 October 2022)
found at http://www.aviationweather.gov/metar/data/
 
VTCC 071300Z VRB01KT 9999 FEW035 27/23 Q1012 NOSIG
VTCC 071230Z 27004KT 9999 FEW035 27/23 Q1011 NOSIG
VTCC 071200Z 27005KT 9999 FEW035 27/23 Q1010 NOSIG
VTCC 071130Z 26004KT 240V300 9999 FEW035 28/23 Q1010 NOSIG
VTCC 071100Z 24003KT 210V280 9999 FEW035 29/23 Q1010 NOSIG
VTCC 071030Z VRB04KT 9999 FEW035 31/23 Q1009 NOSIG
VTCC 071000Z 25003KT 200V310 9999 SCT035 31/22 Q1009 NOSIG
VTCC 070930Z VRB02KT 9999 SCT035 31/22 Q1009 NOSIG
VTCC 070900Z 16005KT 9999 SCT035 30/22 Q1009 NOSIG
VTCC 070830Z 18007KT 9999 SCT035 31/23 Q1009 NOSIG
VTCC 070800Z 16011KT 9999 FEW025CB BKN035 31/23 Q1009 NOSIG
VTCC 070730Z 16005KT 130V210 9999 FEW025CB BKN035 32/24 Q1010 NOSIG
VTCC 070700Z 15006KT 9999 FEW025CB BKN035 31/23 Q1010 NOSIG
VTCC 070630Z 12005KT 060V170 9999 FEW025CB BKN035 31/22 Q1011 NOSIG
VTCC 070600Z VRB04KT 9999 BKN035 31/22 Q1011 TEMPO -TSRA FEW025CB
VTCC 070530Z VRB05KT 9999 BKN035 30/22 Q1012 TEMPO FM0610 4000 TSRA FEW025CB
VTCC 070500Z 14006KT 110V170 9999 BKN035 30/22 Q1013 NOSIG
VTCC 070430Z 04004KT 350V090 9999 SCT035 30/22 Q1013 NOSIG
VTCC 070400Z 10004KT 040V140 9999 SCT035 31/23 Q1014 NOSIG
VTCC 070330Z VRB03KT 9999 SCT035 30/23 Q1014 NOSIG
VTCC 070300Z 03005KT 340V060 9999 SCT035 29/23 Q1014 NOSIG
VTCC 070230Z 03005KT 9999 SCT035 27/23 Q1015 NOSIG
VTCC 070200Z 04005KT 010V070 9999 SCT035 27/23 Q1015 NOSIG
VTCC 070130Z 03005KT 350V050 9999 FEW015 SCT035 26/23 Q1014 NOSIG
VTCC 070100Z 03004KT 360V060 9999 FEW015 SCT035 26/23 Q1014 NOSIG
VTCC 070030Z 03003KT 9999 BKN035 25/23 Q1014 NOSIG
VTCC 070000Z VRB01KT 9999 SCT035 25/23 Q1014 NOSIG
VTCC 062330Z 32002KT 9000 SCT035 24/23 Q1013 NOSIG
VTCC 062300Z 00000KT 9999 BKN035 24/23 Q1013 NOSIG
VTCC 062230Z VRB01KT 9999 BKN035 24/23 Q1013 NOSIG
VTCC 062200Z 00000KT 9999 BKN035 24/23 Q1013 NOSIG
VTCC 062130Z 29003KT 260V320 9999 -RA BKN035 25/23 Q1013 NOSIG
VTCC 062100Z 34002KT 9999 SCT035 25/23 Q1013 NOSIG
VTCC 062030Z VRB01KT 9999 SCT035 24/23 Q1013 NOSIG
VTCC 062000Z 19002KT 9999 SCT035 24/23 Q1013 NOSIG
VTCC 061930Z VRB02KT 9999 SCT035 25/23 Q1013 NOSIG
VTCC 061900Z 00000KT 9999 BKN035 26/23 Q1013 NOSIG
VTCC 061830Z 31003KT 260V350 9999 BKN035 26/23 Q1013 NOSIG
VTCC 061800Z VRB01KT 9999 BKN035 26/23 Q1013 NOSIG
VTCC 061730Z VRB01KT 9999 SCT035 26/23 Q1014 NOSIG
VTCC 061700Z VRB01KT 9999 SCT035 25/23 Q1014 NOSIG
VTCC 061630Z 24003KT 9999 FEW035 26/23 Q1014 NOSIG
VTCC 061600Z 00000KT 9999 FEW035 26/23 Q1014 NOSIG
VTCC 061530Z VRB02KT 9999 FEW035 26/23 Q1014 NOSIG
VTCC 061500Z VRB01KT 9999 FEW035 26/23 Q1014 NOSIG
VTCC 061430Z VRB02KT 9999 FEW035 26/23 Q1014 NOSIG
VTCC 061400Z 27003KT 9999 FEW035 26/23 Q1013 NOSIG
VTCC 061330Z 34003KT 320V030 9999 FEW035 26/23 Q1013 NOSIG
TAF VTCC 071100Z 0712/0818 24005KT 9999 BKN035 
     BECMG 0715/0717 35005KT 
     TEMPO 0717/0723 -TSRA FEW025CB BKN035 
     BECMG 0800/0802 17005KT 
     TEMPO 0806/0810 -TSRA FEW025CB BKN035 
     BECMG 0809/0811 36005KT